Time;durP1;ratioP1;P1;durP2;ratioP2;P2;SDS_P1;SDS_P2;PMS_P1;PMS_P2;Temp;Humidity;BMP_temperature;BMP_pressure;BME280_temperature;BME280_humidity;BME280_pressure;Samples;Min_cycle;Max_cycle;Signal;HPM_P1;HPM_P2
2023/05/08 00:01:43;;;;;;;7.45;6.75;;;18.50;99.90;;;;;;5156592;27;20033;-79
2023/05/08 00:04:09;;;;;;;9.68;8.77;;;18.60;99.90;;;;;;5138003;27;20027;-78
2023/05/08 00:06:34;;;;;;;9.32;8.35;;;18.60;99.90;;;;;;5121078;27;20043;-78
2023/05/08 00:09:00;;;;;;;9.20;8.35;;;18.70;99.90;;;;;;5138313;27;20038;-79
2023/05/08 00:11:26;;;;;;;8.98;8.00;;;18.70;99.90;;;;;;5137880;27;20031;-79
2023/05/08 00:13:51;;;;;;;11.35;9.40;;;18.70;99.90;;;;;;5138262;27;20026;-79
2023/05/08 00:16:17;;;;;;;9.38;7.95;;;18.70;99.90;;;;;;5156359;27;20382;-78
2023/05/08 00:18:43;;;;;;;11.02;9.20;;;18.70;99.90;;;;;;5120719;27;20037;-78
2023/05/08 00:21:08;;;;;;;12.23;9.52;;;18.60;99.90;;;;;;5138059;27;20074;-78
2023/05/08 00:23:34;;;;;;;9.70;8.70;;;18.60;99.90;;;;;;5156462;27;20027;-78
2023/05/08 00:26:00;;;;;;;13.10;11.52;;;18.60;99.90;;;;;;5137926;27;20368;-78
2023/05/08 00:28:25;;;;;;;10.30;9.30;;;18.60;99.90;;;;;;5155755;27;20039;-79
2023/05/08 00:30:51;;;;;;;13.35;11.23;;;18.60;99.90;;;;;;5138165;27;20038;-79
2023/05/08 00:33:17;;;;;;;10.75;9.65;;;18.50;99.90;;;;;;5155760;27;20035;-79
2023/05/08 00:35:43;;;;;;;11.25;9.93;;;18.50;99.90;;;;;;5137322;27;20493;-79
2023/05/08 00:38:09;;;;;;;10.90;9.80;;;18.50;99.90;;;;;;5137730;27;20516;-79
2023/05/08 00:40:35;;;;;;;11.57;10.45;;;18.50;99.90;;;;;;5137888;27;20030;-79
2023/05/08 00:43:01;;;;;;;10.60;9.00;;;18.50;99.90;;;;;;5120032;27;20041;-79
2023/05/08 00:45:35;;;;;;;11.70;10.25;;;18.50;99.90;;;;;;5137510;27;20109;-79
2023/05/08 00:48:02;;;;;;;10.00;9.00;;;18.50;99.90;;;;;;5155609;27;20394;-78
2023/05/08 00:50:29;;;;;;;10.32;9.32;;;18.50;99.90;;;;;;5120896;27;20046;-79
2023/05/08 00:52:56;;;;;;;11.32;10.15;;;18.50;99.90;;;;;;5120032;27;20050;-79
2023/05/08 00:55:22;;;;;;;13.50;11.25;;;18.50;99.90;;;;;;5120279;27;20027;-79
2023/05/08 00:57:47;;;;;;;13.38;11.73;;;18.40;99.90;;;;;;5137243;27;20454;-79
2023/05/08 01:00:16;;;;;;;11.30;10.13;;;18.40;99.90;;;;;;5156079;27;20066;-78
2023/05/08 01:02:42;;;;;;;8.98;7.07;;;18.40;99.90;;;;;;5137250;27;20026;-78
2023/05/08 01:05:08;;;;;;;12.68;10.57;;;18.40;99.90;;;;;;5137765;27;20076;-79
2023/05/08 01:07:34;;;;;;;11.23;9.93;;;18.40;99.90;;;;;;5120571;27;20031;-79
2023/05/08 01:10:00;;;;;;;9.55;8.18;;;18.40;99.90;;;;;;5155123;27;20030;-79
2023/05/08 01:12:36;;;;;;;8.85;8.05;;;18.40;99.90;;;;;;5119929;27;20470;-79
2023/05/08 01:15:17;;;;;;;10.68;9.40;;;18.40;99.90;;;;;;5155806;27;20050;-78
2023/05/08 01:17:48;;;;;;;11.68;10.40;;;18.40;99.90;;;;;;5137177;27;20033;-78
2023/05/08 01:20:24;;;;;;;11.32;10.05;;;18.40;99.90;;;;;;5155205;27;20382;-79
2023/05/08 01:22:50;;;;;;;13.50;10.57;;;18.30;99.90;;;;;;5136770;27;20027;-78
2023/05/08 01:25:28;;;;;;;10.80;9.70;;;18.30;99.90;;;;;;5155298;27;20101;-78
2023/05/08 01:27:57;;;;;;;8.35;7.53;;;18.30;99.90;;;;;;5137269;27;20393;-78
2023/05/08 01:30:39;;;;;;;11.35;9.98;;;18.30;99.90;;;;;;5136650;27;20465;-78
2023/05/08 01:33:18;;;;;;;10.70;9.55;;;18.30;99.90;;;;;;5136480;27;20064;-78
2023/05/08 01:35:52;;;;;;;13.93;12.20;;;18.20;99.90;;;;;;5155896;27;20022;-79
2023/05/08 01:38:26;;;;;;;10.60;9.57;;;18.20;99.90;;;;;;5137306;27;20030;-79
2023/05/08 01:41:00;;;;;;;12.07;10.88;;;18.20;99.90;;;;;;5155501;27;20027;-80
2023/05/08 01:43:48;;;;;;;11.63;10.20;;;18.20;99.90;;;;;;5155212;27;20027;-79
2023/05/08 01:46:21;;;;;;;13.45;10.93;;;18.20;99.90;;;;;;5159719;27;20026;-78
2023/05/08 01:49:05;;;;;;;14.35;10.90;;;18.20;99.90;;;;;;5159626;27;20038;-78
2023/05/08 01:51:40;;;;;;;11.68;10.55;;;18.10;99.90;;;;;;5159322;27;20069;-78
2023/05/08 01:54:10;;;;;;;12.02;10.10;;;18.10;99.90;;;;;;5141007;27;20070;-79
2023/05/08 01:56:37;;;;;;;11.15;10.05;;;18.10;99.90;;;;;;5158919;27;20042;-79
2023/05/08 01:59:05;;;;;;;15.30;11.98;;;18.10;99.90;;;;;;5159160;27;20058;-79
2023/05/08 02:01:32;;;;;;;12.32;11.10;;;18.10;99.90;;;;;;5159134;27;20026;-78
2023/05/08 02:04:00;;;;;;;13.05;9.55;;;18.10;99.90;;;;;;5158832;27;20018;-79
2023/05/08 02:06:27;;;;;;;12.20;11.00;;;18.00;99.90;;;;;;5140373;27;20030;-79
2023/05/08 02:08:55;;;;;;;13.18;11.85;;;18.00;99.90;;;;;;5158887;27;20035;-78
2023/05/08 02:11:23;;;;;;;12.40;11.07;;;18.00;99.90;;;;;;5140171;27;20019;-79
2023/05/08 02:13:50;;;;;;;11.02;9.93;;;18.00;99.90;;;;;;5158839;27;20038;-79
2023/05/08 02:16:18;;;;;;;11.23;9.32;;;18.00;99.90;;;;;;5158815;27;20320;-79
2023/05/08 02:18:51;;;;;;;12.00;10.77;;;18.00;99.90;;;;;;5123080;27;20027;-78
2023/05/08 02:21:18;;;;;;;12.00;10.80;;;18.00;99.90;;;;;;5158803;27;20019;-78
2023/05/08 02:23:44;;;;;;;11.85;10.05;;;18.10;99.90;;;;;;5123744;27;20369;-78
2023/05/08 02:26:12;;;;;;;13.18;11.10;;;18.00;99.90;;;;;;5158647;27;20019;-78
2023/05/08 02:28:40;;;;;;;14.15;12.65;;;18.10;99.90;;;;;;5158252;27;20394;-78
2023/05/08 02:31:06;;;;;;;13.43;10.82;;;18.00;99.90;;;;;;5158582;27;20424;-78
2023/05/08 02:33:33;;;;;;;14.60;11.38;;;18.00;99.90;;;;;;5140499;27;20041;-78
2023/05/08 02:35:59;;;;;;;13.90;11.20;;;18.00;99.90;;;;;;5122554;27;20023;-78
2023/05/08 02:38:26;;;;;;;13.02;11.60;;;18.00;99.90;;;;;;5122896;27;20030;-78
2023/05/08 02:40:59;;;;;;;14.18;10.98;;;18.00;99.90;;;;;;5122690;27;20042;-78
2023/05/08 02:43:26;;;;;;;17.55;11.48;;;17.90;99.90;;;;;;5139768;27;20051;-77
2023/05/08 02:46:06;;;;;;;12.32;11.02;;;17.90;99.90;;;;;;5158055;27;20106;-78
2023/05/08 02:48:46;;;;;;;13.63;10.50;;;17.90;99.90;;;;;;5158564;27;20035;-78
2023/05/08 02:51:19;;;;;;;11.18;9.98;;;17.80;99.90;;;;;;5158185;27;20485;-77
2023/05/08 02:54:08;;;;;;;11.40;10.30;;;17.90;99.90;;;;;;5139207;27;20388;-77
2023/05/08 02:56:46;;;;;;;11.30;10.07;;;17.80;99.90;;;;;;5139759;27;20359;-78
2023/05/08 02:59:41;;;;;;;11.38;10.18;;;17.80;99.90;;;;;;5139392;27;20539;-78
2023/05/08 03:02:14;;;;;;;15.00;13.50;;;17.80;99.90;;;;;;5155113;27;20035;-78
2023/05/08 03:04:53;;;;;;;14.95;13.45;;;17.80;99.90;;;;;;5158212;27;20018;-78
2023/05/08 03:07:23;;;;;;;12.82;11.55;;;17.70;99.90;;;;;;5157850;27;20061;-78
2023/05/08 03:09:55;;;;;;;11.27;10.02;;;17.60;99.90;;;;;;5157711;27;20031;-79
2023/05/08 03:12:23;;;;;;;;;;;17.60;99.90;;;;;;5157887;27;20030;-79
2023/05/08 03:15:14;;;;;;;15.30;13.70;;;17.60;99.90;;;;;;5158073;27;19904;-78
2023/05/08 03:17:42;;;;;;;11.88;9.75;;;17.60;99.90;;;;;;5157822;27;20019;-78
2023/05/08 03:20:13;;;;;;;8.07;7.28;;;17.60;99.90;;;;;;5139367;27;20096;-79
2023/05/08 03:22:41;;;;;;;12.48;11.23;;;17.60;99.90;;;;;;5139034;27;20105;-78
2023/05/08 03:25:09;;;;;;;13.70;11.93;;;17.60;99.90;;;;;;5157556;27;20025;-79
2023/05/08 03:27:36;;;;;;;14.05;12.65;;;17.60;99.90;;;;;;5139331;27;20038;-78
2023/05/08 03:30:04;;;;;;;8.60;7.72;;;17.60;99.90;;;;;;5157481;27;20129;-78
2023/05/08 03:32:32;;;;;;;14.45;12.35;;;17.60;99.90;;;;;;5157378;27;20019;-79
2023/05/08 03:34:58;;;;;;;13.10;11.88;;;17.60;99.90;;;;;;5138999;27;20419;-78
2023/05/08 03:37:27;;;;;;;17.23;15.43;;;17.60;99.90;;;;;;5138503;27;20109;-78
2023/05/08 03:39:53;;;;;;;12.95;11.43;;;17.60;99.90;;;;;;5157113;27;20019;-78
2023/05/08 03:42:22;;;;;;;12.45;11.15;;;17.50;99.90;;;;;;5104500;27;20030;-79
2023/05/08 03:44:51;;;;;;;11.48;9.73;;;17.60;99.90;;;;;;5138779;27;20023;-78
2023/05/08 03:47:18;;;;;;;14.43;12.57;;;17.60;99.90;;;;;;5138745;27;20033;-78
2023/05/08 03:49:48;;;;;;;12.45;11.25;;;17.60;99.90;;;;;;5121284;27;20087;-78
2023/05/08 03:52:15;;;;;;;13.88;12.57;;;17.60;99.90;;;;;;5137942;27;20046;-78
2023/05/08 03:54:41;;;;;;;12.82;11.35;;;17.60;99.90;;;;;;5139287;27;20106;-78
2023/05/08 03:57:07;;;;;;;10.15;9.15;;;17.60;99.90;;;;;;5156859;27;20031;-78
2023/05/08 03:59:36;;;;;;;13.57;10.88;;;17.60;99.90;;;;;;5138195;27;20034;-78
2023/05/08 04:02:33;;;;;;;12.32;11.13;;;17.50;99.90;;;;;;5138266;27;20019;-78
2023/05/08 04:05:23;;;;;;;12.95;11.70;;;17.50;99.90;;;;;;5138999;27;20061;-78
2023/05/08 04:07:54;;;;;;;10.30;9.40;;;17.60;99.90;;;;;;5137690;27;20034;-78
2023/05/08 04:10:30;;;;;;;12.98;10.93;;;17.60;99.90;;;;;;5138064;27;20030;-78
2023/05/08 04:13:17;;;;;;;13.27;11.90;;;17.60;99.90;;;;;;5138797;27;20397;-78
2023/05/08 04:15:49;;;;;;;11.90;10.50;;;17.60;99.90;;;;;;5156286;27;20026;-79
2023/05/08 04:18:20;;;;;;;13.98;12.70;;;17.60;99.90;;;;;;5156883;27;20023;-78
2023/05/08 04:20:49;;;;;;;14.10;12.70;;;17.60;99.90;;;;;;5138453;27;20030;-78
2023/05/08 04:23:19;;;;;;;12.45;11.25;;;17.50;99.90;;;;;;5138649;27;20023;-79
2023/05/08 04:25:47;;;;;;;11.80;9.80;;;17.50;99.90;;;;;;5156474;27;20018;-78
2023/05/08 04:28:14;;;;;;;13.27;11.90;;;17.40;99.90;;;;;;5156929;27;20031;-78
2023/05/08 04:30:40;;;;;;;13.18;11.88;;;17.40;99.90;;;;;;5120927;27;20126;-78
2023/05/08 04:33:06;;;;;;;14.27;12.88;;;17.40;99.90;;;;;;5137795;27;20125;-78
2023/05/08 04:35:33;;;;;;;13.38;12.07;;;17.40;99.90;;;;;;5137525;27;20031;-78
2023/05/08 04:37:58;;;;;;;14.98;13.27;;;17.40;99.90;;;;;;5137582;27;20023;-78
2023/05/08 04:40:25;;;;;;;14.00;12.60;;;17.40;99.90;;;;;;5155992;27;20026;-77
2023/05/08 04:42:50;;;;;;;13.23;11.85;;;17.40;99.90;;;;;;5155955;27;20466;-78
2023/05/08 04:45:16;;;;;;;13.98;12.52;;;17.40;99.90;;;;;;5156125;27;20049;-79
2023/05/08 04:47:42;;;;;;;12.90;11.57;;;17.40;99.90;;;;;;5137520;27;20079;-78
2023/05/08 04:50:08;;;;;;;13.45;11.77;;;17.30;99.90;;;;;;5120893;27;20091;-78
2023/05/08 04:52:34;;;;;;;12.43;11.23;;;17.30;99.90;;;;;;5156050;27;20051;-78
2023/05/08 04:54:59;;;;;;;17.02;15.25;;;17.30;99.90;;;;;;5155729;27;20030;-78
2023/05/08 04:57:25;;;;;;;14.63;13.23;;;17.30;99.90;;;;;;5155549;27;20421;-78
2023/05/08 04:59:51;;;;;;;14.45;12.43;;;17.30;99.90;;;;;;5137071;27;20030;-78
2023/05/08 05:02:17;;;;;;;13.75;12.38;;;17.30;99.90;;;;;;5137696;27;20053;-78
2023/05/08 05:04:42;;;;;;;15.32;12.77;;;17.30;99.90;;;;;;5120475;27;20415;-77
2023/05/08 05:07:08;;;;;;;13.35;12.05;;;17.30;99.90;;;;;;5155866;27;20379;-78
2023/05/08 05:09:35;;;;;;;14.18;12.57;;;17.20;99.90;;;;;;5136740;27;20030;-78
2023/05/08 05:12:03;;;;;;;13.40;12.15;;;17.30;99.90;;;;;;5120947;27;20530;-79
2023/05/08 05:14:28;;;;;;;14.88;13.38;;;17.20;99.90;;;;;;5155443;27;20079;-78
2023/05/08 05:16:54;;;;;;;14.82;13.38;;;17.20;99.90;;;;;;5120025;27;20409;-79
2023/05/08 05:19:20;;;;;;;17.95;16.05;;;17.20;99.90;;;;;;5136164;27;20039;-79
2023/05/08 05:21:45;;;;;;;13.60;12.25;;;17.10;99.90;;;;;;5137364;27;20045;-78
2023/05/08 05:24:11;;;;;;;16.77;15.00;;;17.00;99.90;;;;;;5155398;27;20026;-78
2023/05/08 05:26:37;;;;;;;18.02;16.13;;;17.10;99.90;;;;;;5119921;27;20026;-76
2023/05/08 05:29:03;;;;;;;18.17;15.02;;;17.00;99.90;;;;;;5136917;27;20041;-78
2023/05/08 05:31:29;;;;;;;16.70;15.00;;;17.00;99.90;;;;;;5136582;27;20023;-78
2023/05/08 05:33:55;;;;;;;14.38;12.70;;;17.00;99.90;;;;;;5155134;27;20462;-78
2023/05/08 05:36:21;;;;;;;18.23;16.20;;;17.00;99.90;;;;;;5155251;27;20034;-79
2023/05/08 05:38:47;;;;;;;17.40;15.60;;;17.00;99.90;;;;;;5136714;27;20061;-78
2023/05/08 05:41:12;;;;;;;16.58;14.40;;;16.90;99.90;;;;;;5154914;27;20050;-79
2023/05/08 05:43:38;;;;;;;18.50;16.73;;;16.90;99.90;;;;;;5155690;27;20023;-78
2023/05/08 05:46:05;;;;;;;15.25;13.75;;;16.80;99.90;;;;;;5120047;27;20035;-79
2023/05/08 05:48:31;;;;;;;15.95;14.35;;;16.80;99.90;;;;;;5155346;27;20038;-78
2023/05/08 05:50:56;;;;;;;19.00;16.90;;;16.90;99.90;;;;;;5136639;27;20027;-78
2023/05/08 05:53:22;;;;;;;16.70;14.10;;;16.90;99.90;;;;;;5155538;27;20050;-78
2023/05/08 05:55:48;;;;;;;16.42;14.73;;;16.90;99.90;;;;;;5119314;27;20375;-79
2023/05/08 05:58:15;;;;;;;17.60;15.80;;;17.00;99.90;;;;;;5155044;27;20493;-79
2023/05/08 06:00:47;;;;;;;19.27;17.38;;;17.00;99.90;;;;;;5137161;27;20031;-79
2023/05/08 06:03:13;;;;;;;19.27;17.38;;;17.00;99.90;;;;;;5137102;27;20463;-79
2023/05/08 06:05:39;;;;;;;17.27;15.48;;;16.90;99.90;;;;;;5155117;27;20199;-79
2023/05/08 06:08:06;;;;;;;18.00;16.10;;;16.90;99.90;;;;;;5155010;27;20023;-79
2023/05/08 06:10:31;;;;;;;17.20;15.50;;;17.00;99.90;;;;;;5119532;27;20053;-79
2023/05/08 06:12:57;;;;;;;17.90;15.60;;;17.00;99.90;;;;;;5135920;27;20027;-78
2023/05/08 06:15:23;;;;;;;21.17;18.40;;;17.10;99.90;;;;;;5155933;27;20031;-77
2023/05/08 06:17:49;;;;;;;22.27;19.05;;;17.10;99.90;;;;;;5156273;27;20041;-77
2023/05/08 06:20:14;;;;;;;20.83;18.73;;;17.10;99.90;;;;;;5156280;27;20370;-77
2023/05/08 06:22:40;;;;;;;18.10;16.30;;;17.00;99.90;;;;;;5137512;27;20457;-77
2023/05/08 06:25:07;;;;;;;19.38;15.23;;;17.00;99.90;;;;;;5138100;27;20459;-76
2023/05/08 06:27:36;;;;;;;25.25;20.95;;;17.10;99.90;;;;;;5138191;27;20106;-77
2023/05/08 06:30:03;;;;;;;25.58;19.83;;;17.20;99.90;;;;;;5156531;27;20118;-78
2023/05/08 06:32:30;;;;;;;23.30;19.60;;;17.20;99.90;;;;;;5160283;27;20064;-77
2023/05/08 06:34:55;;;;;;;20.00;16.98;;;17.20;99.90;;;;;;5160474;27;20030;-77
2023/05/08 06:37:21;;;;;;;27.13;19.50;;;17.30;99.90;;;;;;5160001;27;20031;-78
2023/05/08 06:39:47;;;;;;;31.02;22.40;;;17.30;99.90;;;;;;5124367;27;20088;-78
2023/05/08 06:42:13;;;;;;;31.13;22.50;;;17.40;99.90;;;;;;5140729;27;20027;-77
2023/05/08 06:44:39;;;;;;;35.55;23.45;;;17.50;99.90;;;;;;5158969;27;20155;-77
2023/05/08 06:47:05;;;;;;;33.63;22.00;;;17.50;99.90;;;;;;5159357;27;20454;-78
2023/05/08 06:49:31;;;;;;;35.50;24.40;;;17.60;99.90;;;;;;5159411;27;20109;-78
2023/05/08 06:51:57;;;;;;;31.17;20.52;;;17.60;99.90;;;;;;5140937;27;20129;-77
2023/05/08 06:54:22;;;;;;;34.95;22.92;;;17.70;99.90;;;;;;5123669;27;20054;-76
2023/05/08 06:56:48;;;;;;;36.97;25.08;;;17.80;99.90;;;;;;5141078;27;20035;-77
2023/05/08 06:59:14;;;;;;;36.25;26.00;;;17.80;99.90;;;;;;5106805;27;20485;-78
2023/05/08 07:01:40;;;;;;;32.05;22.85;;;17.90;99.90;;;;;;5140789;27;20117;-77
2023/05/08 07:04:06;;;;;;;33.75;23.77;;;17.90;99.90;;;;;;5124751;27;20054;-77
2023/05/08 07:06:32;;;;;;;35.78;25.90;;;17.90;99.90;;;;;;5140753;27;20026;-77
2023/05/08 07:09:04;;;;;;;38.03;25.33;;;17.90;99.90;;;;;;5123547;27;20046;-77
2023/05/08 07:11:29;;;;;;;35.83;24.97;;;18.00;99.90;;;;;;5140990;27;20026;-77
2023/05/08 07:13:55;;;;;;;38.45;26.77;;;18.10;99.90;;;;;;5159543;27;20026;-77
2023/05/08 07:16:21;;;;;;;38.50;25.95;;;18.20;99.90;;;;;;5159458;27;20130;-77
2023/05/08 07:18:46;;;;;;;42.15;27.83;;;18.30;99.90;;;;;;5158527;27;20031;-76
2023/05/08 07:21:14;;;;;;;36.97;25.75;;;18.40;99.90;;;;;;5141127;27;20374;-76
2023/05/08 07:23:40;;;;;;;38.60;26.88;;;18.40;99.90;;;;;;5106630;27;20034;-77
2023/05/08 07:26:07;;;;;;;40.83;26.02;;;18.40;99.90;;;;;;5139667;27;20030;-76
2023/05/08 07:28:32;;;;;;;39.25;26.63;;;18.50;99.90;;;;;;5139670;27;20034;-76
2023/05/08 07:30:58;;;;;;;39.22;27.40;;;18.60;99.90;;;;;;5139629;27;20033;-77
2023/05/08 07:33:24;;;;;;;39.83;26.27;;;18.60;99.90;;;;;;5140076;27;20481;-77
2023/05/08 07:35:49;;;;;;;38.35;25.73;;;18.70;99.90;;;;;;5158238;27;20031;-78
2023/05/08 07:38:15;;;;;;;34.45;24.20;;;18.70;99.90;;;;;;5157995;27;20034;-78
2023/05/08 07:40:41;;;;;;;38.85;26.27;;;18.60;99.90;;;;;;5139184;27;20497;-77
2023/05/08 07:43:06;;;;;;;36.65;26.13;;;18.60;99.90;;;;;;5138090;27;20027;-77
2023/05/08 07:45:33;;;;;;;42.67;27.58;;;18.60;99.90;;;;;;5122094;27;20031;-77
2023/05/08 07:47:59;;;;;;;39.97;26.70;;;18.60;99.90;;;;;;5122331;27;20412;-77
2023/05/08 07:50:25;;;;;;;36.92;26.02;;;18.50;99.90;;;;;;5138986;27;20027;-78
2023/05/08 07:52:51;;;;;;;36.50;26.17;;;18.50;99.90;;;;;;5157284;27;20046;-77
2023/05/08 07:55:18;;;;;;;37.65;25.58;;;18.60;99.90;;;;;;5157731;27;20027;-77
2023/05/08 07:57:44;;;;;;;36.60;25.58;;;18.70;99.90;;;;;;5138737;27;20122;-77
2023/05/08 08:00:12;;;;;;;36.10;26.92;;;18.70;99.90;;;;;;5157129;27;20050;-78
2023/05/08 08:02:38;;;;;;;35.58;25.38;;;18.70;99.90;;;;;;5156607;27;20356;-78
2023/05/08 08:05:05;;;;;;;36.67;25.13;;;18.70;99.90;;;;;;5138619;27;20074;-77
2023/05/08 08:07:34;;;;;;;36.65;25.85;;;18.80;99.90;;;;;;5156831;27;20030;-77
2023/05/08 08:10:00;;;;;;;42.92;27.85;;;18.80;99.90;;;;;;5138872;27;20042;-77
2023/05/08 08:12:27;;;;;;;38.60;25.45;;;18.80;99.90;;;;;;5137935;27;20030;-78
2023/05/08 08:14:53;;;;;;;46.95;31.40;;;18.80;99.90;;;;;;5137873;27;20027;-77
2023/05/08 08:17:19;;;;;;;46.67;30.25;;;18.80;99.90;;;;;;5156589;27;20519;-77
2023/05/08 08:19:44;;;;;;;49.92;29.55;;;18.80;99.90;;;;;;5156873;27;20031;-76
2023/05/08 08:22:10;;;;;;;55.25;33.65;;;18.80;99.90;;;;;;5156335;27;20102;-78
2023/05/08 08:24:36;;;;;;;49.05;32.83;;;18.80;99.90;;;;;;5156848;27;20029;-76
2023/05/08 08:27:02;;;;;;;43.08;27.55;;;18.80;99.90;;;;;;5156962;27;20438;-78
2023/05/08 08:29:28;;;;;;;43.10;27.55;;;18.80;99.90;;;;;;5138002;27;20084;-78
2023/05/08 08:31:53;;;;;;;47.05;30.88;;;18.90;99.90;;;;;;5157016;27;20027;-77
2023/05/08 08:34:19;;;;;;;49.75;30.25;;;19.00;99.90;;;;;;5137388;27;20038;-78
2023/05/08 08:36:45;;;;;;;50.35;32.72;;;19.00;99.90;;;;;;5137963;27;20058;-78
2023/05/08 08:39:10;;;;;;;51.63;31.38;;;19.00;99.90;;;;;;5155812;27;20030;-75
2023/05/08 08:41:38;;;;;;;47.20;28.52;;;19.00;99.90;;;;;;5120421;27;20030;-77
2023/05/08 08:44:04;;;;;;;45.88;29.23;;;19.00;99.90;;;;;;5119936;27;20027;-78
2023/05/08 08:46:32;;;;;;;46.33;30.92;;;19.10;99.90;;;;;;5137571;27;20050;-77
2023/05/08 08:49:01;;;;;;;46.08;29.98;;;19.20;99.90;;;;;;5137510;27;20234;-77
2023/05/08 08:51:51;;;;;;;48.35;29.40;;;19.30;99.90;;;;;;5137176;27;20023;-75
2023/05/08 08:54:21;;;;;;;49.10;31.50;;;19.40;99.90;;;;;;5136351;27;20126;-77
2023/05/08 08:56:48;;;;;;;48.22;30.15;;;19.60;99.90;;;;;;5155986;27;20025;-76
2023/05/08 08:59:17;;;;;;;50.70;31.00;;;19.70;99.90;;;;;;5155808;27;20023;-76
2023/05/08 09:01:46;;;;;;;42.75;28.25;;;19.70;99.90;;;;;;5137395;27;20042;-76
2023/05/08 09:04:12;;;;;;;43.22;29.42;;;19.80;99.90;;;;;;5155595;27;20052;-76
2023/05/08 09:06:40;;;;;;;43.92;28.88;;;19.90;99.90;;;;;;5137101;27;20031;-76
2023/05/08 09:09:06;;;;;;;41.97;28.45;;;20.10;99.90;;;;;;5155422;27;20066;-76
2023/05/08 09:11:31;;;;;;;43.92;29.05;;;20.20;99.90;;;;;;5155762;27;20075;-76
2023/05/08 09:13:58;;;;;;;39.72;26.60;;;20.30;99.90;;;;;;5155313;27;20501;-78
2023/05/08 09:16:24;;;;;;;45.88;31.40;;;20.50;99.90;;;;;;5119773;27;20470;-76
2023/05/08 09:18:50;;;;;;;40.33;26.83;;;20.50;99.90;;;;;;5137027;27;20027;-76
2023/05/08 09:21:16;;;;;;;41.88;28.25;;;20.60;99.90;;;;;;5119787;27;20055;-75
2023/05/08 09:24:02;;;;;;;37.05;27.30;;;20.80;99.90;;;;;;5155492;27;20038;-76
2023/05/08 09:26:33;;;;;;;30.65;24.08;;;20.90;99.90;;;;;;5136951;27;20022;-76
2023/05/08 09:29:21;;;;;;;35.30;24.67;;;21.00;99.90;;;;;;5155398;27;20424;-76
2023/05/08 09:31:51;;;;;;;39.78;28.42;;;21.20;99.90;;;;;;5137070;27;20019;-76
2023/05/08 09:34:26;;;;;;;45.63;30.55;;;21.30;99.90;;;;;;5154888;27;20034;-77
2023/05/08 09:36:52;;;;;;;38.08;26.42;;;21.30;99.90;;;;;;5154635;27;20023;-76
2023/05/08 09:39:24;;;;;;;35.28;24.75;;;21.40;99.90;;;;;;5155363;27;20046;-76
2023/05/08 09:42:03;;;;;;;34.78;24.48;;;21.40;99.90;;;;;;5136608;27;20026;-76
2023/05/08 09:44:52;;;;;;;36.53;26.33;;;21.60;99.90;;;;;;5154953;27;20037;-76
2023/05/08 09:47:20;;;;;;;41.22;29.73;;;21.60;99.90;;;;;;5154930;27;20046;-76
2023/05/08 09:50:00;;;;;;;36.78;27.02;;;21.70;99.90;;;;;;5136541;27;20039;-76
2023/05/08 09:52:27;;;;;;;33.70;24.98;;;21.60;99.90;;;;;;5155386;27;20040;-75
2023/05/08 09:55:06;;;;;;;36.67;27.10;;;21.50;99.90;;;;;;5155465;27;20099;-76
2023/05/08 09:57:38;;;;;;;32.28;24.92;;;21.40;99.90;;;;;;5155403;27;20023;-76
2023/05/08 10:00:08;;;;;;;33.97;25.73;;;21.30;99.90;;;;;;5136958;27;20030;-75
2023/05/08 10:02:40;;;;;;;32.80;25.00;;;21.30;99.90;;;;;;5136527;27;20026;-75
2023/05/08 10:05:25;;;;;;;34.05;26.27;;;21.30;99.90;;;;;;5156063;27;20026;-79
2023/05/08 10:07:51;;;;;;;28.48;22.40;;;21.30;99.90;;;;;;5159039;27;20027;-75
2023/05/08 10:10:29;;;;;;;29.35;22.77;;;21.40;99.90;;;;;;5159052;27;20485;-75
2023/05/08 10:12:56;;;;;;;30.98;25.40;;;21.60;99.90;;;;;;5158944;27;20030;-76
2023/05/08 10:15:27;;;;;;;32.90;26.10;;;21.70;99.90;;;;;;5158638;27;20030;-76
2023/05/08 10:18:13;;;;;;;30.00;22.60;;;21.70;99.90;;;;;;5158672;27;20466;-75
2023/05/08 10:20:41;;;;;;;32.30;23.20;;;21.80;99.90;;;;;;5158523;27;20029;-76
2023/05/08 10:23:10;;;;;;;30.67;21.83;;;21.90;99.90;;;;;;5158637;27;20054;-76
2023/05/08 10:25:43;;;;;;;27.58;22.05;;;21.90;99.90;;;;;;5158592;27;20022;-77
2023/05/08 10:28:35;;;;;;;31.08;24.55;;;21.90;99.60;;;;;;5139814;27;20027;-76
2023/05/08 10:31:04;;;;;;;36.08;27.23;;;21.90;99.80;;;;;;5135122;27;20034;-76
2023/05/08 10:33:30;;;;;;;35.28;26.90;;;21.80;99.60;;;;;;5123070;27;20035;-74
2023/05/08 10:35:57;;;;;;;29.42;23.90;;;21.70;99.90;;;;;;5140523;27;20031;-74
2023/05/08 10:38:24;;;;;;;29.10;22.52;;;21.60;99.90;;;;;;5158527;27;20106;-74
2023/05/08 10:40:56;;;;;;;27.55;21.17;;;21.60;99.90;;;;;;5158331;27;20134;-74
2023/05/08 10:43:27;;;;;;;26.40;22.10;;;21.50;99.90;;;;;;5158670;27;20034;-74
2023/05/08 10:45:55;;;;;;;27.33;24.40;;;21.40;99.90;;;;;;5158115;27;20092;-74
2023/05/08 10:48:35;;;;;;;27.50;24.67;;;21.30;99.90;;;;;;5158106;27;20038;-74
2023/05/08 10:51:41;;;;;;;26.95;23.80;;;21.20;99.90;;;;;;5158062;27;20129;-74
2023/05/08 10:54:12;;;;;;;28.40;25.45;;;21.10;99.90;;;;;;5089795;27;20054;-73
2023/05/08 10:56:38;;;;;;;30.67;27.42;;;21.00;99.90;;;;;;5140261;27;20019;-72
2023/05/08 10:59:04;;;;;;;28.17;25.10;;;20.90;99.90;;;;;;5158162;27;20458;-73
2023/05/08 11:01:30;;;;;;;30.63;27.20;;;20.70;99.90;;;;;;5139554;27;20022;-73
2023/05/08 11:03:56;;;;;;;30.75;27.55;;;20.70;99.90;;;;;;5157753;27;20432;-73
2023/05/08 11:06:43;;;;;;;34.20;29.42;;;20.60;99.90;;;;;;5157782;27;20117;-73
2023/05/08 11:09:26;;;;;;;28.38;24.60;;;20.50;99.90;;;;;;5157911;27;20375;-73
2023/05/08 11:12:17;;;;;;;33.88;29.90;;;20.40;99.90;;;;;;5157888;27;20070;-73
2023/05/08 11:14:52;;;;;;;32.90;29.40;;;20.30;99.90;;;;;;5158002;27;20034;-73
2023/05/08 11:17:22;;;;;;;38.20;33.13;;;20.30;99.90;;;;;;5157449;27;20039;-73
2023/05/08 11:19:57;;;;;;;34.60;30.17;;;20.30;99.90;;;;;;5138806;27;20031;-73
2023/05/08 11:22:25;;;;;;;31.27;27.95;;;20.30;99.90;;;;;;5139135;27;20023;-74
2023/05/08 11:24:51;;;;;;;33.95;30.40;;;20.30;99.90;;;;;;5138849;27;20030;-77
2023/05/08 11:27:17;;;;;;;33.10;29.70;;;20.30;99.90;;;;;;5138442;27;20071;-78
2023/05/08 11:29:43;;;;;;;35.13;31.45;;;20.30;99.90;;;;;;5155842;27;20408;-78
2023/05/08 11:32:09;;;;;;;33.58;30.00;;;20.40;99.90;;;;;;5138164;27;20443;-76
2023/05/08 11:34:41;;;;;;;34.92;30.85;;;20.40;99.90;;;;;;5138050;27;20027;-77
2023/05/08 11:37:11;;;;;;;34.97;31.47;;;20.40;99.90;;;;;;5138248;27;20067;-77
2023/05/08 11:39:36;;;;;;;33.22;29.73;;;20.40;99.90;;;;;;5156740;27;20026;-76
2023/05/08 11:42:24;;;;;;;36.38;32.58;;;20.40;99.90;;;;;;5120451;27;20035;-77
2023/05/08 11:45:11;;;;;;;36.40;32.55;;;20.50;99.90;;;;;;5156118;27;20099;-76
2023/05/08 11:47:44;;;;;;;38.67;33.03;;;20.50;99.90;;;;;;5156367;27;20055;-77
2023/05/08 11:50:11;;;;;;;38.63;34.55;;;20.50;99.90;;;;;;5138229;27;20086;-76
2023/05/08 11:52:39;;;;;;;36.25;32.45;;;20.60;99.90;;;;;;5137388;27;20102;-77
2023/05/08 11:55:07;;;;;;;40.35;36.10;;;20.50;99.90;;;;;;5136913;27;20138;-76
2023/05/08 11:57:33;;;;;;;39.47;35.10;;;20.60;99.90;;;;;;5155979;27;20026;-77
2023/05/08 12:00:09;;;;;;;37.78;33.67;;;20.60;99.90;;;;;;5156515;27;20109;-77
2023/05/08 12:02:38;;;;;;;38.08;34.00;;;20.70;99.90;;;;;;5156486;27;20470;-77
2023/05/08 12:05:08;;;;;;;38.08;34.08;;;20.70;99.90;;;;;;5156544;27;20027;-77
2023/05/08 12:07:46;;;;;;;35.55;31.85;;;20.80;99.90;;;;;;5157109;27;20105;-76
2023/05/08 12:10:15;;;;;;;35.78;32.13;;;20.80;99.90;;;;;;5137832;27;20034;-77
2023/05/08 12:12:42;;;;;;;32.65;29.30;;;20.90;99.90;;;;;;5138092;27;20026;-77
2023/05/08 12:15:10;;;;;;;36.88;33.15;;;21.00;99.90;;;;;;5138251;27;20023;-77
2023/05/08 12:17:36;;;;;;;38.95;34.92;;;21.10;99.90;;;;;;5138015;27;20023;-77
2023/05/08 12:20:13;;;;;;;39.72;35.63;;;21.10;99.90;;;;;;5121068;27;20026;-77
2023/05/08 12:22:40;;;;;;;34.20;30.50;;;21.10;99.90;;;;;;5156912;27;20049;-77
2023/05/08 12:25:07;;;;;;;37.42;33.05;;;21.10;99.90;;;;;;5156372;27;20027;-77
2023/05/08 12:27:36;;;;;;;35.25;31.60;;;21.10;99.90;;;;;;5138193;27;20018;-78
2023/05/08 12:30:07;;;;;;;33.80;30.25;;;21.10;99.90;;;;;;5156075;27;20030;-77
2023/05/08 12:32:35;;;;;;;40.17;35.83;;;21.10;99.90;;;;;;5121036;27;20355;-78
2023/05/08 12:35:01;;;;;;;36.75;32.85;;;21.00;99.90;;;;;;5137969;27;20217;-77
2023/05/08 12:37:27;;;;;;;38.15;33.55;;;21.00;99.90;;;;;;5137628;27;20034;-77
2023/05/08 12:39:53;;;;;;;34.20;30.70;;;20.90;99.90;;;;;;5120864;27;20031;-77